Archival Weather

Doha Intl Airport

Doha Intl Airport, Qatar (OTBD)

Report from: Thursday, September 21, 2023 1:00 PM +03
Current time: Saturday, March 2, 2024 1:46 PM +03

Current weather – Weather history – Daily summaries
Weather forecast

Temperature42.0°C (107.6°F)
Heat index44.0°C (111.1°F)
Dew point17.0°C (62.6°F)
Winds 6 kts (3.1 m/s, 6.9 mph) Vrb
Winds variableWinds variable from North (350°) to East (80°)
Clouds Sky clear
Altimeter29.65 in.Hg (1004 mB)
Relative humidity24 %
Density altitude3,595 ft. (1,096 m)
Remarks Ceiling and visibility OK
No significant changes expected in the next two hours
Flight conditions Visual Meteorological Conditions
Raw dataOTBD 211000Z 04006KT 350V080 CAVOK 42/17 Q1004 NOSIG
An error has occurred. This application may no longer respond until reloaded. Reload 🗙